sensor_id;sensor_type;location;lat;lon;timestamp;noise_LAeq;noise_LA_min;noise_LA_max;noise_LA01;noise_LA95
41518;Laerm;27249;48.094;-1.690;2023-11-22T00:01:19;43.61;40.98;49.35;;
41518;Laerm;27249;48.094;-1.690;2023-11-22T00:03:44;45.16;40.98;53.75;;
41518;Laerm;27249;48.094;-1.690;2023-11-22T00:06:09;50.54;40.80;64.91;;
41518;Laerm;27249;48.094;-1.690;2023-11-22T00:08:35;47.25;40.71;58.89;;
41518;Laerm;27249;48.094;-1.690;2023-11-22T00:11:00;48.58;41.96;62.11;;
41518;Laerm;27249;48.094;-1.690;2023-11-22T00:13:25;43.73;40.03;50.23;;
41518;Laerm;27249;48.094;-1.690;2023-11-22T00:15:50;51.61;42.09;61.74;;
41518;Laerm;27249;48.094;-1.690;2023-11-22T00:18:16;49.67;42.09;59.89;;
41518;Laerm;27249;48.094;-1.690;2023-11-22T00:20:41;46.87;41.38;59.39;;
41518;Laerm;27249;48.094;-1.690;2023-11-22T00:23:06;44.86;40.33;55.24;;
41518;Laerm;27249;48.094;-1.690;2023-11-22T00:25:31;51.92;40.89;62.13;;
41518;Laerm;27249;48.094;-1.690;2023-11-22T00:27:57;43.14;40.71;46.25;;
41518;Laerm;27249;48.094;-1.690;2023-11-22T00:30:23;43.27;41.14;45.77;;
41518;Laerm;27249;48.094;-1.690;2023-11-22T00:32:48;43.59;40.79;50.95;;
41518;Laerm;27249;48.094;-1.690;2023-11-22T00:35:14;50.52;41.53;60.01;;
41518;Laerm;27249;48.094;-1.690;2023-11-22T00:37:39;45.08;41.61;56.03;;
41518;Laerm;27249;48.094;-1.690;2023-11-22T00:40:05;47.41;40.80;58.78;;
41518;Laerm;27249;48.094;-1.690;2023-11-22T00:42:36;47.41;41.75;64.21;;
41518;Laerm;27249;48.094;-1.690;2023-11-22T00:45:01;49.05;41.61;63.80;;
41518;Laerm;27249;48.094;-1.690;2023-11-22T00:47:26;46.23;41.14;59.37;;
41518;Laerm;27249;48.094;-1.690;2023-11-22T00:49:51;49.21;40.98;63.88;;
41518;Laerm;27249;48.094;-1.690;2023-11-22T00:52:17;43.66;41.14;54.64;;
41518;Laerm;27249;48.094;-1.690;2023-11-22T00:54:42;49.09;41.30;61.29;;
41518;Laerm;27249;48.094;-1.690;2023-11-22T00:57:07;46.19;40.80;58.28;;
41518;Laerm;27249;48.094;-1.690;2023-11-22T00:59:33;45.88;40.98;56.65;;
41518;Laerm;27249;48.094;-1.690;2023-11-22T01:01:58;52.17;41.06;64.20;;
41518;Laerm;27249;48.094;-1.690;2023-11-22T01:04:23;45.06;41.14;54.91;;
41518;Laerm;27249;48.094;-1.690;2023-11-22T01:06:48;43.23;40.53;55.69;;
41518;Laerm;27249;48.094;-1.690;2023-11-22T01:09:14;49.07;40.88;63.41;;
41518;Laerm;27249;48.094;-1.690;2023-11-22T01:11:39;47.82;40.33;62.03;;
41518;Laerm;27249;48.094;-1.690;2023-11-22T01:14:04;52.93;40.62;70.65;;
41518;Laerm;27249;48.094;-1.690;2023-11-22T01:16:30;49.31;40.80;61.35;;
41518;Laerm;27249;48.094;-1.690;2023-11-22T01:18:55;47.51;40.43;61.32;;
41518;Laerm;27249;48.094;-1.690;2023-11-22T01:21:20;46.01;40.53;56.18;;
41518;Laerm;27249;48.094;-1.690;2023-11-22T01:23:46;44.21;41.38;60.90;;
41518;Laerm;27249;48.094;-1.690;2023-11-22T01:26:11;49.56;41.30;57.95;;
41518;Laerm;27249;48.094;-1.690;2023-11-22T01:28:37;45.29;40.43;63.23;;
41518;Laerm;27249;48.094;-1.690;2023-11-22T01:31:02;47.68;40.71;59.73;;
41518;Laerm;27249;48.094;-1.690;2023-11-22T01:33:28;51.36;40.98;65.68;;
41518;Laerm;27249;48.094;-1.690;2023-11-22T01:35:54;43.52;40.80;50.93;;
41518;Laerm;27249;48.094;-1.690;2023-11-22T01:38:19;46.46;40.62;55.88;;
41518;Laerm;27249;48.094;-1.690;2023-11-22T01:40:45;45.39;41.22;54.13;;
41518;Laerm;27249;48.094;-1.690;2023-11-22T01:43:14;44.42;40.89;52.90;;
41518;Laerm;27249;48.094;-1.690;2023-11-22T01:45:40;45.92;41.11;55.96;;
41518;Laerm;27249;48.094;-1.690;2023-11-22T01:48:05;43.76;41.22;50.13;;
41518;Laerm;27249;48.094;-1.690;2023-11-22T01:50:30;50.15;41.22;59.58;;
41518;Laerm;27249;48.094;-1.690;2023-11-22T01:52:56;43.69;39.58;50.51;;
41518;Laerm;27249;48.094;-1.690;2023-11-22T01:55:21;47.35;40.98;59.69;;
41518;Laerm;27249;48.094;-1.690;2023-11-22T01:57:46;43.26;40.43;46.76;;
41518;Laerm;27249;48.094;-1.690;2023-11-22T02:00:11;47.04;40.71;57.98;;
41518;Laerm;27249;48.094;-1.690;2023-11-22T02:02:39;48.12;41.06;59.32;;
41518;Laerm;27249;48.094;-1.690;2023-11-22T02:05:05;43.21;40.03;45.48;;
41518;Laerm;27249;48.094;-1.690;2023-11-22T02:07:30;48.87;41.30;59.73;;
41518;Laerm;27249;48.094;-1.690;2023-11-22T02:09:56;43.64;41.14;47.95;;
41518;Laerm;27249;48.094;-1.690;2023-11-22T02:12:22;53.12;41.89;68.68;;
41518;Laerm;27249;48.094;-1.690;2023-11-22T02:14:48;49.48;41.53;64.70;;
41518;Laerm;27249;48.094;-1.690;2023-11-22T02:17:14;50.31;40.62;65.76;;
41518;Laerm;27249;48.094;-1.690;2023-11-22T02:19:41;43.64;39.92;50.11;;
41518;Laerm;27249;48.094;-1.690;2023-11-22T02:22:07;43.35;40.98;45.39;;
41518;Laerm;27249;48.094;-1.690;2023-11-22T02:24:33;47.16;40.23;59.29;;
41518;Laerm;27249;48.094;-1.690;2023-11-22T02:26:59;43.54;41.06;48.13;;
41518;Laerm;27249;48.094;-1.690;2023-11-22T02:29:24;48.41;40.89;60.49;;
41518;Laerm;27249;48.094;-1.690;2023-11-22T02:31:49;43.54;40.62;47.83;;
41518;Laerm;27249;48.094;-1.690;2023-11-22T02:34:15;51.71;41.53;66.22;;
41518;Laerm;27249;48.094;-1.690;2023-11-22T02:36:43;43.51;40.98;53.59;;
41518;Laerm;27249;48.094;-1.690;2023-11-22T02:39:09;54.01;41.22;65.35;;
41518;Laerm;27249;48.094;-1.690;2023-11-22T02:41:34;45.97;40.71;60.86;;
41518;Laerm;27249;48.094;-1.690;2023-11-22T02:44:00;43.53;40.80;59.09;;
41518;Laerm;27249;48.094;-1.690;2023-11-22T02:46:25;43.22;40.03;45.63;;
41518;Laerm;27249;48.094;-1.690;2023-11-22T02:48:51;43.48;40.53;45.75;;
41518;Laerm;27249;48.094;-1.690;2023-11-22T02:51:16;45.57;41.22;66.98;;
41518;Laerm;27249;48.094;-1.690;2023-11-22T02:53:42;49.11;41.68;60.65;;
41518;Laerm;27249;48.094;-1.690;2023-11-22T02:56:08;47.42;40.33;61.03;;
41518;Laerm;27249;48.094;-1.690;2023-11-22T02:58:34;47.36;41.96;57.21;;
41518;Laerm;27249;48.094;-1.690;2023-11-22T03:00:59;43.58;41.46;45.63;;
41518;Laerm;27249;48.094;-1.690;2023-11-22T03:03:24;46.86;40.13;57.43;;
41518;Laerm;27249;48.094;-1.690;2023-11-22T03:05:50;47.12;41.30;57.62;;
41518;Laerm;27249;48.094;-1.690;2023-11-22T03:08:19;45.57;41.14;54.59;;
41518;Laerm;27249;48.094;-1.690;2023-11-22T03:10:44;51.44;40.53;67.48;;
41518;Laerm;27249;48.094;-1.690;2023-11-22T03:13:09;50.05;41.68;65.65;;
41518;Laerm;27249;48.094;-1.690;2023-11-22T03:15:35;51.07;41.75;62.65;;
41518;Laerm;27249;48.094;-1.690;2023-11-22T03:18:00;47.44;41.30;67.57;;
41518;Laerm;27249;48.094;-1.690;2023-11-22T03:20:26;46.84;41.46;57.29;;
41518;Laerm;27249;48.094;-1.690;2023-11-22T03:22:51;50.34;41.89;60.85;;
41518;Laerm;27249;48.094;-1.690;2023-11-22T03:25:16;52.43;42.03;62.40;;
41518;Laerm;27249;48.094;-1.690;2023-11-22T03:27:42;47.66;40.98;58.25;;
41518;Laerm;27249;48.094;-1.690;2023-11-22T03:30:08;47.47;42.16;58.41;;
41518;Laerm;27249;48.094;-1.690;2023-11-22T03:32:36;50.67;41.89;60.58;;
41518;Laerm;27249;48.094;-1.690;2023-11-22T03:35:03;50.83;42.16;64.58;;
41518;Laerm;27249;48.094;-1.690;2023-11-22T03:37:30;49.70;42.42;60.62;;
41518;Laerm;27249;48.094;-1.690;2023-11-22T03:39:55;43.86;41.30;46.55;;
41518;Laerm;27249;48.094;-1.690;2023-11-22T03:42:20;52.41;41.33;64.58;;
41518;Laerm;27249;48.094;-1.690;2023-11-22T03:44:46;47.67;41.68;60.55;;
41518;Laerm;27249;48.094;-1.690;2023-11-22T03:47:11;48.49;41.53;64.05;;
41518;Laerm;27249;48.094;-1.690;2023-11-22T03:49:38;46.38;41.06;56.13;;
41518;Laerm;27249;48.094;-1.690;2023-11-22T03:52:03;53.19;42.22;61.71;;
41518;Laerm;27249;48.094;-1.690;2023-11-22T03:54:28;51.08;41.75;61.51;;
41518;Laerm;27249;48.094;-1.690;2023-11-22T03:56:53;47.40;42.22;61.80;;
41518;Laerm;27249;48.094;-1.690;2023-11-22T03:59:18;50.82;43.09;61.25;;
41518;Laerm;27249;48.094;-1.690;2023-11-22T04:01:44;53.55;41.61;68.52;;
41518;Laerm;27249;48.094;-1.690;2023-11-22T04:04:09;49.66;42.47;59.99;;
41518;Laerm;27249;48.094;-1.690;2023-11-22T04:06:35;52.55;41.38;64.21;;
41518;Laerm;27249;48.094;-1.690;2023-11-22T04:09:00;47.86;41.22;59.85;;
41518;Laerm;27249;48.094;-1.690;2023-11-22T04:11:26;48.44;42.16;59.56;;
41518;Laerm;27249;48.094;-1.690;2023-11-22T04:13:53;50.01;40.80;60.46;;
41518;Laerm;27249;48.094;-1.690;2023-11-22T04:16:18;47.90;42.19;60.34;;
41518;Laerm;27249;48.094;-1.690;2023-11-22T04:18:43;43.60;41.68;46.20;;
41518;Laerm;27249;48.094;-1.690;2023-11-22T04:21:09;53.53;42.47;64.95;;
41518;Laerm;27249;48.094;-1.690;2023-11-22T04:23:34;49.97;42.09;60.39;;
41518;Laerm;27249;48.094;-1.690;2023-11-22T04:26:00;50.12;41.53;62.63;;
41518;Laerm;27249;48.094;-1.690;2023-11-22T04:28:25;44.24;41.53;57.44;;
41518;Laerm;27249;48.094;-1.690;2023-11-22T04:30:51;49.07;41.89;59.31;;
41518;Laerm;27249;48.094;-1.690;2023-11-22T04:33:17;47.39;41.38;59.20;;
41518;Laerm;27249;48.094;-1.690;2023-11-22T04:35:42;53.95;42.88;64.49;;
41518;Laerm;27249;48.094;-1.690;2023-11-22T04:38:07;51.21;42.47;60.09;;
41518;Laerm;27249;48.094;-1.690;2023-11-22T04:40:33;50.15;42.03;61.70;;
41518;Laerm;27249;48.094;-1.690;2023-11-22T04:42:58;49.47;41.89;60.89;;
41518;Laerm;27249;48.094;-1.690;2023-11-22T04:45:24;53.24;42.30;65.99;;
41518;Laerm;27249;48.094;-1.690;2023-11-22T04:47:49;49.90;43.33;59.09;;
41518;Laerm;27249;48.094;-1.690;2023-11-22T04:50:14;48.40;41.75;57.81;;
41518;Laerm;27249;48.094;-1.690;2023-11-22T04:52:39;50.24;43.14;59.89;;
41518;Laerm;27249;48.094;-1.690;2023-11-22T04:55:05;57.83;44.27;68.15;;
41518;Laerm;27249;48.094;-1.690;2023-11-22T04:57:30;54.09;46.38;74.00;;
41518;Laerm;27249;48.094;-1.690;2023-11-22T04:59:56;55.40;45.04;74.59;;
41518;Laerm;27249;48.094;-1.690;2023-11-22T05:02:21;51.06;43.54;61.13;;
41518;Laerm;27249;48.094;-1.690;2023-11-22T05:04:47;55.20;45.33;64.63;;
41518;Laerm;27249;48.094;-1.690;2023-11-22T05:07:14;51.05;43.49;62.40;;
41518;Laerm;27249;48.094;-1.690;2023-11-22T05:09:39;50.87;42.93;63.79;;
41518;Laerm;27249;48.094;-1.690;2023-11-22T05:12:05;55.68;43.14;73.96;;
41518;Laerm;27249;48.094;-1.690;2023-11-22T05:14:30;51.49;42.71;69.05;;
41518;Laerm;27249;48.094;-1.690;2023-11-22T05:16:55;52.45;42.22;66.62;;
41518;Laerm;27249;48.094;-1.690;2023-11-22T05:19:21;54.55;44.27;66.87;;
41518;Laerm;27249;48.094;-1.690;2023-11-22T05:21:47;50.99;43.29;63.04;;
41518;Laerm;27249;48.094;-1.690;2023-11-22T05:24:12;49.26;42.53;69.80;;
41518;Laerm;27249;48.094;-1.690;2023-11-22T05:26:37;53.23;44.69;62.44;;
41518;Laerm;27249;48.094;-1.690;2023-11-22T05:29:03;50.60;43.58;59.22;;
41518;Laerm;27249;48.094;-1.690;2023-11-22T05:31:30;52.64;44.03;65.91;;
41518;Laerm;27249;48.094;-1.690;2023-11-22T05:33:55;54.95;42.74;76.98;;
41518;Laerm;27249;48.094;-1.690;2023-11-22T05:36:20;53.15;43.72;66.19;;
41518;Laerm;27249;48.094;-1.690;2023-11-22T05:38:46;55.50;45.42;74.19;;
41518;Laerm;27249;48.094;-1.690;2023-11-22T05:41:11;52.28;43.99;60.92;;
41518;Laerm;27249;48.094;-1.690;2023-11-22T05:43:37;57.93;47.93;69.21;;
41518;Laerm;27249;48.094;-1.690;2023-11-22T05:46:03;54.59;45.36;64.99;;
41518;Laerm;27249;48.094;-1.690;2023-11-22T05:48:28;53.93;45.69;59.93;;
41518;Laerm;27249;48.094;-1.690;2023-11-22T05:50:53;55.21;46.40;63.14;;
41518;Laerm;27249;48.094;-1.690;2023-11-22T05:53:19;56.53;47.74;67.80;;
41518;Laerm;27249;48.094;-1.690;2023-11-22T05:55:47;57.49;49.33;71.13;;
41518;Laerm;27249;48.094;-1.690;2023-11-22T05:58:13;56.92;47.16;77.52;;
41518;Laerm;27249;48.094;-1.690;2023-11-22T06:00:41;55.10;45.54;63.53;;
41518;Laerm;27249;48.094;-1.690;2023-11-22T06:03:06;54.95;46.45;63.67;;
41518;Laerm;27249;48.094;-1.690;2023-11-22T06:05:32;54.67;44.80;65.26;;
41518;Laerm;27249;48.094;-1.690;2023-11-22T06:07:57;56.39;48.36;62.47;;
41518;Laerm;27249;48.094;-1.690;2023-11-22T06:10:22;56.06;47.79;62.34;;
41518;Laerm;27249;48.094;-1.690;2023-11-22T06:12:47;54.20;46.20;61.70;;
41518;Laerm;27249;48.094;-1.690;2023-11-22T06:15:13;54.73;47.54;61.37;;
41518;Laerm;27249;48.094;-1.690;2023-11-22T06:17:38;55.99;46.02;63.68;;
41518;Laerm;27249;48.094;-1.690;2023-11-22T06:20:03;56.43;47.74;66.21;;
41518;Laerm;27249;48.094;-1.690;2023-11-22T06:22:29;60.46;52.58;76.31;;
41518;Laerm;27249;48.094;-1.690;2023-11-22T06:24:54;55.08;46.69;66.49;;
41518;Laerm;27249;48.094;-1.690;2023-11-22T06:27:19;56.74;47.12;64.98;;
41518;Laerm;27249;48.094;-1.690;2023-11-22T06:29:45;56.69;49.78;65.39;;
41518;Laerm;27249;48.094;-1.690;2023-11-22T06:32:11;55.62;46.69;61.67;;
41518;Laerm;27249;48.094;-1.690;2023-11-22T06:34:37;55.98;46.66;62.29;;
41518;Laerm;27249;48.094;-1.690;2023-11-22T06:37:02;57.63;50.92;68.16;;
41518;Laerm;27249;48.094;-1.690;2023-11-22T06:39:27;57.97;50.67;67.34;;
41518;Laerm;27249;48.094;-1.690;2023-11-22T06:41:53;56.25;49.73;64.14;;
41518;Laerm;27249;48.094;-1.690;2023-11-22T06:44:18;58.74;49.96;68.15;;
41518;Laerm;27249;48.094;-1.690;2023-11-22T06:46:43;58.44;51.25;76.80;;
41518;Laerm;27249;48.094;-1.690;2023-11-22T06:49:08;58.05;52.16;63.99;;
41518;Laerm;27249;48.094;-1.690;2023-11-22T06:51:34;57.76;52.32;63.14;;
41518;Laerm;27249;48.094;-1.690;2023-11-22T06:53:59;58.67;52.47;72.29;;
41518;Laerm;27249;48.094;-1.690;2023-11-22T06:56:24;59.21;48.05;75.79;;
41518;Laerm;27249;48.094;-1.690;2023-11-22T06:58:49;57.74;52.15;63.89;;
41518;Laerm;27249;48.094;-1.690;2023-11-22T07:01:16;57.07;50.74;68.53;;
41518;Laerm;27249;48.094;-1.690;2023-11-22T07:03:41;57.14;52.48;64.67;;
41518;Laerm;27249;48.094;-1.690;2023-11-22T07:06:07;57.46;51.13;63.60;;
41518;Laerm;27249;48.094;-1.690;2023-11-22T07:08:32;59.02;52.68;68.24;;
41518;Laerm;27249;48.094;-1.690;2023-11-22T07:10:58;66.38;53.67;76.28;;
41518;Laerm;27249;48.094;-1.690;2023-11-22T07:13:23;66.52;56.91;74.81;;
41518;Laerm;27249;48.094;-1.690;2023-11-22T07:15:49;64.33;52.62;88.11;;
41518;Laerm;27249;48.094;-1.690;2023-11-22T07:18:15;59.71;52.71;72.26;;
41518;Laerm;27249;48.094;-1.690;2023-11-22T07:20:41;60.99;54.83;67.73;;
41518;Laerm;27249;48.094;-1.690;2023-11-22T07:23:06;65.97;54.73;72.48;;
41518;Laerm;27249;48.094;-1.690;2023-11-22T07:25:31;66.61;58.93;72.14;;
41518;Laerm;27249;48.094;-1.690;2023-11-22T07:27:58;61.85;56.30;67.50;;
41518;Laerm;27249;48.094;-1.690;2023-11-22T07:30:25;65.00;58.44;71.25;;
41518;Laerm;27249;48.094;-1.690;2023-11-22T07:32:55;63.55;57.00;70.11;;
41518;Laerm;27249;48.094;-1.690;2023-11-22T07:35:20;72.18;57.51;78.19;;
41518;Laerm;27249;48.094;-1.690;2023-11-22T07:37:46;68.92;56.06;76.38;;
41518;Laerm;27249;48.094;-1.690;2023-11-22T07:40:12;60.38;52.71;68.82;;
41518;Laerm;27249;48.094;-1.690;2023-11-22T07:42:38;58.24;50.13;66.07;;
41518;Laerm;27249;48.094;-1.690;2023-11-22T07:45:04;58.91;53.67;68.45;;
41518;Laerm;27249;48.094;-1.690;2023-11-22T07:47:29;59.56;52.72;68.91;;
41518;Laerm;27249;48.094;-1.690;2023-11-22T07:49:54;59.71;51.83;68.11;;
41518;Laerm;27249;48.094;-1.690;2023-11-22T07:52:22;58.29;53.57;65.40;;
41518;Laerm;27249;48.094;-1.690;2023-11-22T07:54:52;57.70;53.41;63.53;;
41518;Laerm;27249;48.094;-1.690;2023-11-22T07:57:17;58.63;53.14;66.27;;
41518;Laerm;27249;48.094;-1.690;2023-11-22T07:59:45;58.43;50.62;66.40;;
41518;Laerm;27249;48.094;-1.690;2023-11-22T08:02:12;58.53;53.00;67.47;;
41518;Laerm;27249;48.094;-1.690;2023-11-22T08:04:37;57.18;51.08;63.59;;
41518;Laerm;27249;48.094;-1.690;2023-11-22T08:07:03;58.21;52.90;67.02;;
41518;Laerm;27249;48.094;-1.690;2023-11-22T08:09:28;58.43;49.45;67.80;;
41518;Laerm;27249;48.094;-1.690;2023-11-22T08:11:57;57.61;51.52;63.13;;
41518;Laerm;27249;48.094;-1.690;2023-11-22T08:14:23;58.42;51.25;64.75;;
41518;Laerm;27249;48.094;-1.690;2023-11-22T08:16:49;57.61;49.98;66.72;;
41518;Laerm;27249;48.094;-1.690;2023-11-22T08:19:15;56.05;47.72;63.82;;
41518;Laerm;27249;48.094;-1.690;2023-11-22T08:21:41;58.64;49.30;64.89;;
41518;Laerm;27249;48.094;-1.690;2023-11-22T08:24:06;58.30;50.14;67.29;;
41518;Laerm;27249;48.094;-1.690;2023-11-22T08:26:31;58.37;51.36;65.60;;
41518;Laerm;27249;48.094;-1.690;2023-11-22T08:28:57;57.72;50.26;67.23;;
41518;Laerm;27249;48.094;-1.690;2023-11-22T08:31:22;57.84;48.15;66.76;;
41518;Laerm;27249;48.094;-1.690;2023-11-22T08:33:47;59.18;52.47;69.63;;
41518;Laerm;27249;48.094;-1.690;2023-11-22T08:36:12;68.12;49.15;91.47;;
41518;Laerm;27249;48.094;-1.690;2023-11-22T08:38:37;58.78;50.55;65.34;;
41518;Laerm;27249;48.094;-1.690;2023-11-22T08:41:06;57.65;51.23;67.17;;
41518;Laerm;27249;48.094;-1.690;2023-11-22T08:43:32;57.81;50.27;64.11;;
41518;Laerm;27249;48.094;-1.690;2023-11-22T08:45:57;56.21;49.65;66.38;;
41518;Laerm;27249;48.094;-1.690;2023-11-22T08:48:23;57.28;50.23;62.53;;
41518;Laerm;27249;48.094;-1.690;2023-11-22T08:50:49;57.67;50.69;67.59;;
41518;Laerm;27249;48.094;-1.690;2023-11-22T08:53:15;58.29;51.37;63.81;;
41518;Laerm;27249;48.094;-1.690;2023-11-22T08:55:42;57.55;50.32;65.63;;
41518;Laerm;27249;48.094;-1.690;2023-11-22T08:58:08;55.55;47.12;64.74;;
41518;Laerm;27249;48.094;-1.690;2023-11-22T09:00:34;57.55;48.58;63.50;;
41518;Laerm;27249;48.094;-1.690;2023-11-22T09:03:00;58.60;50.98;68.99;;
41518;Laerm;27249;48.094;-1.690;2023-11-22T09:05:25;58.32;50.53;66.05;;
41518;Laerm;27249;48.094;-1.690;2023-11-22T09:07:52;58.56;46.69;70.90;;
41518;Laerm;27249;48.094;-1.690;2023-11-22T09:10:18;57.37;51.95;63.99;;
41518;Laerm;27249;48.094;-1.690;2023-11-22T09:12:46;55.38;50.04;64.14;;
41518;Laerm;27249;48.094;-1.690;2023-11-22T09:15:13;57.78;47.61;65.54;;
41518;Laerm;27249;48.094;-1.690;2023-11-22T09:17:41;57.26;47.72;64.62;;
41518;Laerm;27249;48.094;-1.690;2023-11-22T09:20:11;57.40;51.72;64.24;;
41518;Laerm;27249;48.094;-1.690;2023-11-22T09:22:41;58.92;51.95;69.60;;
41518;Laerm;27249;48.094;-1.690;2023-11-22T09:25:10;56.29;47.67;62.86;;
41518;Laerm;27249;48.094;-1.690;2023-11-22T09:27:36;57.26;52.09;62.64;;
41518;Laerm;27249;48.094;-1.690;2023-11-22T09:30:02;57.20;49.67;64.63;;
41518;Laerm;27249;48.094;-1.690;2023-11-22T09:32:27;59.39;50.36;71.64;;
41518;Laerm;27249;48.094;-1.690;2023-11-22T09:34:53;54.80;48.37;65.98;;
41518;Laerm;27249;48.094;-1.690;2023-11-22T09:37:22;57.93;50.95;66.89;;
41518;Laerm;27249;48.094;-1.690;2023-11-22T09:39:48;59.54;50.85;69.78;;
41518;Laerm;27249;48.094;-1.690;2023-11-22T09:42:13;57.37;49.02;68.90;;
41518;Laerm;27249;48.094;-1.690;2023-11-22T09:44:38;58.04;52.04;69.02;;
41518;Laerm;27249;48.094;-1.690;2023-11-22T09:47:04;55.37;49.11;70.49;;
41518;Laerm;27249;48.094;-1.690;2023-11-22T09:49:29;57.65;49.07;80.21;;
41518;Laerm;27249;48.094;-1.690;2023-11-22T09:51:56;57.03;51.54;62.15;;
41518;Laerm;27249;48.094;-1.690;2023-11-22T09:54:23;60.51;51.34;73.36;;
41518;Laerm;27249;48.094;-1.690;2023-11-22T09:56:54;59.28;52.93;76.59;;
41518;Laerm;27249;48.094;-1.690;2023-11-22T09:59:20;57.69;51.80;65.51;;
41518;Laerm;27249;48.094;-1.690;2023-11-22T10:01:48;57.79;50.40;67.89;;
41518;Laerm;27249;48.094;-1.690;2023-11-22T10:04:13;58.30;50.55;67.09;;
41518;Laerm;27249;48.094;-1.690;2023-11-22T10:06:39;59.79;54.65;64.77;;
41518;Laerm;27249;48.094;-1.690;2023-11-22T10:09:05;60.33;55.46;65.28;;
41518;Laerm;27249;48.094;-1.690;2023-11-22T10:11:33;59.34;52.82;64.68;;
41518;Laerm;27249;48.094;-1.690;2023-11-22T10:13:58;58.17;53.33;63.05;;
41518;Laerm;27249;48.094;-1.690;2023-11-22T10:16:24;59.89;54.28;68.04;;
41518;Laerm;27249;48.094;-1.690;2023-11-22T10:18:49;58.06;51.64;63.65;;
41518;Laerm;27249;48.094;-1.690;2023-11-22T10:21:28;57.66;50.68;64.53;;
41518;Laerm;27249;48.094;-1.690;2023-11-22T10:24:01;58.43;51.54;66.60;;
41518;Laerm;27249;48.094;-1.690;2023-11-22T10:26:27;57.61;49.39;64.94;;
41518;Laerm;27249;48.094;-1.690;2023-11-22T10:28:53;56.74;49.36;72.06;;
41518;Laerm;27249;48.094;-1.690;2023-11-22T10:31:19;56.66;49.74;62.78;;
41518;Laerm;27249;48.094;-1.690;2023-11-22T10:33:44;58.11;48.98;71.28;;
41518;Laerm;27249;48.094;-1.690;2023-11-22T10:36:10;56.87;49.89;65.55;;
41518;Laerm;27249;48.094;-1.690;2023-11-22T10:38:37;56.74;50.25;64.67;;
41518;Laerm;27249;48.094;-1.690;2023-11-22T10:41:06;56.62;51.59;64.70;;
41518;Laerm;27249;48.094;-1.690;2023-11-22T10:43:33;57.12;49.73;66.18;;
41518;Laerm;27249;48.094;-1.690;2023-11-22T10:46:00;57.69;51.94;66.00;;
41518;Laerm;27249;48.094;-1.690;2023-11-22T10:48:26;56.95;49.95;66.31;;
41518;Laerm;27249;48.094;-1.690;2023-11-22T10:50:52;57.46;52.08;63.19;;
41518;Laerm;27249;48.094;-1.690;2023-11-22T10:53:24;56.64;50.49;63.11;;
41518;Laerm;27249;48.094;-1.690;2023-11-22T10:55:53;58.24;52.55;66.93;;
41518;Laerm;27249;48.094;-1.690;2023-11-22T10:58:22;58.27;50.14;76.24;;
41518;Laerm;27249;48.094;-1.690;2023-11-22T11:00:50;58.03;53.04;64.90;;
41518;Laerm;27249;48.094;-1.690;2023-11-22T11:03:18;57.00;50.57;63.45;;
41518;Laerm;27249;48.094;-1.690;2023-11-22T11:05:49;59.01;53.36;69.00;;
41518;Laerm;27249;48.094;-1.690;2023-11-22T11:08:16;58.43;53.83;64.29;;
41518;Laerm;27249;48.094;-1.690;2023-11-22T11:10:43;58.63;52.39;67.37;;
41518;Laerm;27249;48.094;-1.690;2023-11-22T11:13:09;58.85;49.67;71.07;;
41518;Laerm;27249;48.094;-1.690;2023-11-22T11:15:39;57.62;50.54;64.66;;
41518;Laerm;27249;48.094;-1.690;2023-11-22T11:18:05;57.92;52.45;64.06;;
41518;Laerm;27249;48.094;-1.690;2023-11-22T11:20:48;59.11;52.64;70.92;;
41518;Laerm;27249;48.094;-1.690;2023-11-22T11:23:15;57.32;52.27;63.48;;
41518;Laerm;27249;48.094;-1.690;2023-11-22T11:25:41;56.45;51.03;63.02;;
41518;Laerm;27249;48.094;-1.690;2023-11-22T11:28:09;58.38;50.40;75.71;;
41518;Laerm;27249;48.094;-1.690;2023-11-22T11:33:11;59.00;51.17;70.84;;
41518;Laerm;27249;48.094;-1.690;2023-11-22T11:35:47;58.16;50.46;63.66;;
41518;Laerm;27249;48.094;-1.690;2023-11-22T11:38:15;58.88;50.90;70.81;;
41518;Laerm;27249;48.094;-1.690;2023-11-22T11:40:41;58.44;51.10;67.25;;
41518;Laerm;27249;48.094;-1.690;2023-11-22T11:43:07;57.77;51.05;64.83;;
41518;Laerm;27249;48.094;-1.690;2023-11-22T11:45:39;57.58;51.03;65.17;;
41518;Laerm;27249;48.094;-1.690;2023-11-22T11:48:05;57.80;50.05;64.75;;
41518;Laerm;27249;48.094;-1.690;2023-11-22T11:50:31;55.29;49.20;71.08;;
41518;Laerm;27249;48.094;-1.690;2023-11-22T11:52:57;56.82;50.21;64.78;;
41518;Laerm;27249;48.094;-1.690;2023-11-22T11:55:22;57.18;50.61;65.21;;
41518;Laerm;27249;48.094;-1.690;2023-11-22T11:57:47;57.80;50.07;65.63;;
41518;Laerm;27249;48.094;-1.690;2023-11-22T12:00:13;56.99;48.92;65.37;;
41518;Laerm;27249;48.094;-1.690;2023-11-22T12:02:39;57.57;49.02;63.99;;
41518;Laerm;27249;48.094;-1.690;2023-11-22T12:05:04;57.89;47.28;68.29;;
41518;Laerm;27249;48.094;-1.690;2023-11-22T12:07:34;56.99;48.42;65.49;;
41518;Laerm;27249;48.094;-1.690;2023-11-22T12:09:59;57.67;51.41;67.12;;
41518;Laerm;27249;48.094;-1.690;2023-11-22T12:12:25;57.58;49.04;65.57;;
41518;Laerm;27249;48.094;-1.690;2023-11-22T12:14:50;58.37;51.77;63.78;;
41518;Laerm;27249;48.094;-1.690;2023-11-22T12:17:15;57.73;51.47;62.82;;
41518;Laerm;27249;48.094;-1.690;2023-11-22T12:19:41;58.65;49.49;67.67;;
41518;Laerm;27249;48.094;-1.690;2023-11-22T12:22:06;58.90;52.91;63.72;;
41518;Laerm;27249;48.094;-1.690;2023-11-22T12:24:33;57.80;51.22;67.01;;
41518;Laerm;27249;48.094;-1.690;2023-11-22T12:26:58;58.05;50.75;64.96;;
41518;Laerm;27249;48.094;-1.690;2023-11-22T12:29:23;57.43;51.52;63.81;;
41518;Laerm;27249;48.094;-1.690;2023-11-22T12:31:49;57.55;50.25;66.96;;
41518;Laerm;27249;48.094;-1.690;2023-11-22T12:34:22;57.42;50.19;65.46;;
41518;Laerm;27249;48.094;-1.690;2023-11-22T12:36:47;57.77;51.06;64.75;;
41518;Laerm;27249;48.094;-1.690;2023-11-22T12:39:12;57.44;48.98;62.59;;
41518;Laerm;27249;48.094;-1.690;2023-11-22T12:41:45;58.58;52.79;64.01;;
41518;Laerm;27249;48.094;-1.690;2023-11-22T12:44:11;57.85;51.97;71.12;;
41518;Laerm;27249;48.094;-1.690;2023-11-22T12:46:47;57.76;50.78;64.48;;
41518;Laerm;27249;48.094;-1.690;2023-11-22T12:49:21;57.96;49.84;64.74;;
41518;Laerm;27249;48.094;-1.690;2023-11-22T12:51:51;58.12;50.88;65.68;;
41518;Laerm;27249;48.094;-1.690;2023-11-22T12:54:17;58.37;51.13;66.61;;
41518;Laerm;27249;48.094;-1.690;2023-11-22T12:56:45;57.74;50.71;73.80;;
41518;Laerm;27249;48.094;-1.690;2023-11-22T12:59:10;57.00;49.07;63.53;;
41518;Laerm;27249;48.094;-1.690;2023-11-22T13:01:35;57.93;50.27;68.68;;
41518;Laerm;27249;48.094;-1.690;2023-11-22T13:04:00;57.70;51.17;64.28;;
41518;Laerm;27249;48.094;-1.690;2023-11-22T13:06:26;57.41;49.64;67.95;;
41518;Laerm;27249;48.094;-1.690;2023-11-22T13:08:51;58.05;47.52;65.76;;
41518;Laerm;27249;48.094;-1.690;2023-11-22T13:11:18;57.40;49.62;66.55;;
41518;Laerm;27249;48.094;-1.690;2023-11-22T13:13:44;56.94;46.45;70.38;;
41518;Laerm;27249;48.094;-1.690;2023-11-22T13:16:09;56.67;49.36;69.23;;
41518;Laerm;27249;48.094;-1.690;2023-11-22T13:18:34;58.61;50.80;78.60;;
41518;Laerm;27249;48.094;-1.690;2023-11-22T13:21:02;56.71;49.51;63.12;;
41518;Laerm;27249;48.094;-1.690;2023-11-22T13:23:27;55.80;48.16;61.50;;
41518;Laerm;27249;48.094;-1.690;2023-11-22T13:25:52;56.98;48.25;65.69;;
41518;Laerm;27249;48.094;-1.690;2023-11-22T13:28:18;56.51;47.65;64.76;;